Station info - map view · info · telemetry · weather · raw · status · beacons · messages · bulletins · browse · moving · my account
Callsign, ship name or locator: Clear       
It is possible to search using wildcards (*?) after a prefix. Example: OH*
APRS station KW4CR - show graphs
Map loading...
Comment: Call me on 146.520
Location: 39°49.26' N 85°54.94' W - locator EM79BT07CA - show map - static map
3.8 miles Northeast bearing 35° from Cumberland, Marion County, Indiana, United States [?]
5.9 miles East bearing 102° from Lawrence, Marion County, Indiana, United States
13.4 miles East bearing 74° from Indianapolis, Marion County, Indiana, United States
55.8 miles Northeast bearing 36° from Bloomington, Monroe County, Indiana, United States
Last position: 2017-01-14 09:40:44 EST (3d 2h48m ago)
2017-01-14 09:40:44 EST local time at Cumberland, United States [?]
Altitude: 866 ft
Course:
Device: Byonics: TinyTrak (tracker)
Last path: KW4CR>APTT4 via WIDE1-1,WIDE2-1,qAR,NA9VY-10 (good)
Positions stored: 773
Other SSIDs: KW4CR-10
Stations near current position of KW4CR - show more
callsign distance last heard - EST      callsign distance last heard - EST
KD9DWV-102.8 miles 258°2017-01-11 19:17:28 KC9RVO-i3.5 miles 133°2017-01-15 07:03:47
N9MRC4.1 miles 66°2016-12-19 07:20:02 N9VKT4.4 miles 118°2017-01-02 12:15:22
N1HQH4.5 miles 324°2017-01-17 12:20:23 WB9CNE4.7 miles 100°2017-01-17 12:11:23
N9GZK-135.3 miles 261°2017-01-15 09:40:58 N9MRC-95.6 miles 14°2017-01-17 07:00:34
N9MOX5.6 miles 109°2017-01-17 12:13:05 KF9TQ B6.3 miles 56°2017-01-07 11:05:47
KF9TQ-B6.3 miles 56°2017-01-07 11:05:57 WW5T-96.5 miles 248°2017-01-16 19:19:20
N9GZK C6.5 miles 248°2017-01-17 12:15:54 N9GZK-C6.5 miles 248°2017-01-17 12:16:04
N9GZK-96.5 miles 248°2017-01-06 17:17:39 n9gzk6.5 miles 248°2017-01-13 10:20:36
N9GZK-16.5 miles 248°2016-12-30 07:40:32 N9AMN6.6 miles 321°2017-01-02 11:08:59
M9FEB-97.0 miles 282°2017-01-15 10:03:24 W9IFW-97.1 miles 189°2017-01-17 10:53:05
Stations which heard KW4CR directly on radio –
callsign pkts first heard - EST last heard longest (tx => rx) longest at - EST
WA8ZWJ-1 2 2017-01-01 19:19:51 2017-01-01 19:28:02 EM79VT > EM79TV 11.3 miles 314° 2017-01-01 19:19:51
W8BLV 1 2017-01-01 18:55:33 2017-01-01 18:55:33 EM89BQ > EM79TM 28.3 miles 245° 2017-01-01 18:55:33
KC8SDN-5 1 2017-01-01 14:22:44 2017-01-01 14:22:44 EM97RU > EM98QC 16.9 miles 353° 2017-01-01 14:22:44
W4RAT-2 1 2017-01-01 11:32:27 2017-01-01 11:32:27 FM17DQ > FM17FU 14.3 miles 34° 2017-01-01 11:32:27
W4RAT-3 4 2017-01-01 11:12:24 2017-01-01 11:30:26 FM17EQ > FM17GM 15.1 miles 129° 2017-01-01 11:30:26
W4RAT-5 2 2017-01-01 11:08:24 2017-01-01 11:16:25 FM17HO > FM17IE 29.6 miles 173° 2017-01-01 11:16:25
WC8EMA 1 2017-01-01 18:57:33 2017-01-01 18:57:33 EM89BQ > EM79WL 19.5 miles 223° 2017-01-01 18:57:33
W4RAT-1 6 2017-01-01 10:54:28 2017-01-01 11:26:25 FM17ML > FM17EM 34.5 miles 274° 2017-01-01 10:54:28
KB4ZIN-5 9 2017-01-01 10:28:20 2017-01-01 10:50:22 FM17NL > FM17PG 15.1 miles 148° 2017-01-01 10:50:22
W8BAP-1 3 2017-01-01 17:59:05 2017-01-01 18:29:15 EM89HM > EM89MF 28.9 miles 134° 2017-01-01 18:29:15
KI6SZ-2 5 2017-01-01 18:47:17 2017-01-01 19:32:06 EM89DP > EM79WT 23.7 miles 299° 2017-01-01 18:47:17
N8NQH-1 5 2017-01-01 18:37:14 2017-01-01 19:05:48 EM89FN > EM79XP 30.1 miles 283° 2017-01-01 18:37:14
W9ICE-10 1 2017-01-04 10:41:58 2017-01-04 10:41:58 EM69XT > EM69VV 11.5 miles 295° 2017-01-04 10:41:58
KJ4RPW-3 21 2017-01-01 11:36:25 2017-01-01 12:42:33 FM17CQ > FM07SX 43.8 miles 296° 2017-01-01 11:42:30
W8VFR-1 1 2017-01-01 19:56:53 2017-01-01 19:56:53 EM79NU > EM79PO 20.5 miles 151° 2017-01-01 19:56:53
W8VFR-9 1 2017-01-01 19:48:20 2017-01-01 19:48:20 EM79PU > EM79QR 8.8 miles 150° 2017-01-01 19:48:20
W8VFR-5 3 2017-01-01 19:30:05 2017-01-01 19:44:13 EM79UU > EM79OM 33.4 miles 226° 2017-01-01 19:30:05
W8VFR-3 2 2017-01-01 19:09:45 2017-01-01 19:17:47 EM79WR > EM79TP 15.4 miles 242° 2017-01-01 19:09:45
WW4GW-4 3 2017-01-01 13:04:42 2017-01-01 13:28:42 FM07FV > FM07JT 22.9 miles 107° 2017-01-01 13:28:42
KA4VMP-10 9 2017-01-01 12:44:32 2017-01-01 13:00:38 FM08KA > FM08LB 9.4 miles 63° 2017-01-01 13:00:38
W8VFR-4 2 2017-01-01 19:21:52 2017-01-01 19:34:11 EM79VT > EM79TR 12.1 miles 243° 2017-01-01 19:21:52
N8VKX-10 3 2017-01-01 19:11:45 2017-01-01 19:42:11 EM79WR > EM79RU 23.4 miles 289° 2017-01-01 19:11:45
KF4HJW-12 9 2017-01-01 10:06:15 2017-01-01 10:24:19 FM16UX > FM17SB 12.4 miles 306° 2017-01-01 10:06:15
KS9N-10 10 2017-01-01 19:50:17 2017-01-01 20:08:24 EM79KU > EM79NT 13.0 miles 99° 2017-01-01 20:08:24
W8VFR-11 5 2017-01-01 20:10:24 2017-01-01 20:20:27 EM79HU > EM79NO 32.5 miles 123° 2017-01-01 20:20:27
WA8ZDL 2 2017-01-01 16:22:53 2017-01-01 16:24:53 EM98CK > EM98CL 4.0 miles 352° 2017-01-01 16:22:53
WE9MA-3 1 2017-01-01 20:26:28 2017-01-01 20:26:28 EM79FU > EM79HW 11.6 miles 57° 2017-01-01 20:26:28
WB9CNE 5 2017-01-01 20:28:27 2017-01-01 20:44:32 EM79ET > EM79CT 12.4 miles 264° 2017-01-01 20:28:27
KD8LXB-10 1 2017-01-01 19:26:02 2017-01-01 19:26:02 EM79VU > EM79QR 20.9 miles 248° 2017-01-01 19:26:02
EATON 2 2017-01-01 19:40:11 2017-01-01 19:46:17 EM79RU > EM79QR 9.0 miles 225° 2017-01-01 19:40:11
NA9VY-10 13 2017-01-01 20:30:27 2017-01-14 09:40:44 EM79ET > EM79BQ 15.6 miles 237° 2017-01-01 20:30:27
N4WFP-5 4 2017-01-01 09:58:09 2017-01-01 10:04:15 FM16UV > FM16UW 3.6 miles 358° 2017-01-01 09:58:09
KD8QFM-3 1 2017-01-01 19:23:58 2017-01-01 19:23:58 EM79VU > EM79VV 2.6 miles 350° 2017-01-01 19:23:58
KD8KTS-10 10 2017-01-01 16:48:53 2017-01-01 17:14:58 EM98AQ > EM88VU 15.0 miles 312° 2017-01-01 16:48:53
KD8SPV-1 29 2017-01-01 16:58:57 2017-01-01 18:53:22 EM89CQ > EM89PE 69.6 miles 119° 2017-01-01 18:53:22
AC8RS 3 2017-01-01 16:32:55 2017-01-01 16:36:53 EM98AN > EM98AM 4.6 miles 110° 2017-01-01 16:36:53
W4COV-15 5 2017-01-01 13:14:42 2017-01-01 13:58:42 FM07HU > FM07BW 26.6 miles 287° 2017-01-01 13:14:42
KF4YLM-1 6 2017-01-01 13:30:41 2017-01-01 13:42:41 FM07EU > EM97WE 55.4 miles 212° 2017-01-01 13:30:41
W4DHW-1 8 2017-01-01 13:06:41 2017-01-01 13:26:41 FM07JW > FM07HR 14.9 miles 211° 2017-01-01 13:06:41

Only position packets which were originated by the station are shown here. The range statistics show some extra long hops, because some digipeaters do not correctly add themselves to the digipeater path. Please check the raw packets.
About this site
This page shows real-time information collected from the Automatic Position Reporting System Internet network (APRS-IS). APRS is used by amateur (ham) radio operators to transmit real-time position information, weather data, telemetry and messages over the radio. A vehicle equipped with a GPS receiver, a VHF transmitter or HF transceiver and a small computer device called a tracker transmits it's location, speed and course in a small data packet, which is then received by a nearby iGate receiving site which forwards the packet on the Internet. Systems connected to the Internet can send information on the APRS-IS without a radio transmitter, or collect and display information transmitted anywhere in the world.
FAQ · Blog · Discussion group · Linking to aprs.fi · AIS sites · Service status · Database statistics · Advertising on aprs.fi · Technical details · API · Change log · Planned changes · Credits and thanks · Terms Of Service · iPhone/iPad APRS